sensor_id;sensor_type;location;lat;lon;timestamp;temperature;humidity
51637;DHT22;37713;53.254;6.460;2023-10-09T00:01:04;13.80;99.90
51637;DHT22;37713;53.254;6.460;2023-10-09T00:03:42;13.80;99.90
51637;DHT22;37713;53.254;6.460;2023-10-09T00:06:09;13.80;99.90
51637;DHT22;37713;53.254;6.460;2023-10-09T00:08:49;13.80;99.90
51637;DHT22;37713;53.254;6.460;2023-10-09T00:11:19;13.80;99.90
51637;DHT22;37713;53.254;6.460;2023-10-09T00:13:46;13.80;99.90
51637;DHT22;37713;53.254;6.460;2023-10-09T00:16:15;13.80;99.90
51637;DHT22;37713;53.254;6.460;2023-10-09T00:18:49;13.80;99.90
51637;DHT22;37713;53.254;6.460;2023-10-09T00:21:19;13.80;99.90
51637;DHT22;37713;53.254;6.460;2023-10-09T00:23:46;13.80;99.90
51637;DHT22;37713;53.254;6.460;2023-10-09T00:26:20;13.80;99.90
51637;DHT22;37713;53.254;6.460;2023-10-09T00:28:46;13.80;99.90
51637;DHT22;37713;53.254;6.460;2023-10-09T00:31:19;13.80;99.90
51637;DHT22;37713;53.254;6.460;2023-10-09T00:33:59;13.80;99.90
51637;DHT22;37713;53.254;6.460;2023-10-09T00:36:45;13.90;99.90
51637;DHT22;37713;53.254;6.460;2023-10-09T00:39:20;13.90;99.90
51637;DHT22;37713;53.254;6.460;2023-10-09T00:42:01;13.90;99.90
51637;DHT22;37713;53.254;6.460;2023-10-09T00:44:27;13.90;99.90
51637;DHT22;37713;53.254;6.460;2023-10-09T00:47:06;13.90;99.90
51637;DHT22;37713;53.254;6.460;2023-10-09T00:49:49;13.90;99.90
51637;DHT22;37713;53.254;6.460;2023-10-09T00:52:15;13.90;99.90
51637;DHT22;37713;53.254;6.460;2023-10-09T00:54:54;14.00;99.90
51637;DHT22;37713;53.254;6.460;2023-10-09T00:57:27;13.90;99.90
51637;DHT22;37713;53.254;6.460;2023-10-09T00:59:54;13.90;99.90
51637;DHT22;37713;53.254;6.460;2023-10-09T01:02:28;13.90;99.90
51637;DHT22;37713;53.254;6.460;2023-10-09T01:05:07;13.90;99.90
51637;DHT22;37713;53.254;6.460;2023-10-09T01:07:46;14.00;99.90
51637;DHT22;37713;53.254;6.460;2023-10-09T01:10:12;14.00;99.90
51637;DHT22;37713;53.254;6.460;2023-10-09T01:12:41;14.00;99.90
51637;DHT22;37713;53.254;6.460;2023-10-09T01:15:10;14.00;99.90
51637;DHT22;37713;53.254;6.460;2023-10-09T01:17:44;13.90;99.90
51637;DHT22;37713;53.254;6.460;2023-10-09T01:20:11;14.00;99.90
51637;DHT22;37713;53.254;6.460;2023-10-09T01:22:42;14.00;99.90
51637;DHT22;37713;53.254;6.460;2023-10-09T01:25:09;14.00;99.90
51637;DHT22;37713;53.254;6.460;2023-10-09T01:27:35;14.00;99.90
51637;DHT22;37713;53.254;6.460;2023-10-09T01:30:06;13.90;99.90
51637;DHT22;37713;53.254;6.460;2023-10-09T01:32:32;14.00;99.90
51637;DHT22;37713;53.254;6.460;2023-10-09T01:35:00;14.00;99.90
51637;DHT22;37713;53.254;6.460;2023-10-09T01:37:25;14.00;99.90
51637;DHT22;37713;53.254;6.460;2023-10-09T01:39:52;14.00;99.90
51637;DHT22;37713;53.254;6.460;2023-10-09T01:42:18;14.00;99.90
51637;DHT22;37713;53.254;6.460;2023-10-09T01:45:00;14.00;99.90
51637;DHT22;37713;53.254;6.460;2023-10-09T01:47:52;13.80;99.90
51637;DHT22;37713;53.254;6.460;2023-10-09T01:50:19;14.00;99.90
51637;DHT22;37713;53.254;6.460;2023-10-09T01:52:50;14.00;99.90
51637;DHT22;37713;53.254;6.460;2023-10-09T01:55:17;14.00;99.90
51637;DHT22;37713;53.254;6.460;2023-10-09T01:58:12;14.00;99.90
51637;DHT22;37713;53.254;6.460;2023-10-09T02:00:47;13.90;99.90
51637;DHT22;37713;53.254;6.460;2023-10-09T02:03:20;14.00;99.90
51637;DHT22;37713;53.254;6.460;2023-10-09T02:05:49;13.90;99.90
51637;DHT22;37713;53.254;6.460;2023-10-09T02:08:25;14.00;99.90
51637;DHT22;37713;53.254;6.460;2023-10-09T02:11:01;14.00;99.90
51637;DHT22;37713;53.254;6.460;2023-10-09T02:13:28;14.00;99.90
51637;DHT22;37713;53.254;6.460;2023-10-09T02:16:00;14.00;99.90
51637;DHT22;37713;53.254;6.460;2023-10-09T02:18:51;13.90;99.90
51637;DHT22;37713;53.254;6.460;2023-10-09T02:21:24;14.00;99.90
51637;DHT22;37713;53.254;6.460;2023-10-09T02:24:05;14.00;99.90
51637;DHT22;37713;53.254;6.460;2023-10-09T02:26:32;14.00;99.90
51637;DHT22;37713;53.254;6.460;2023-10-09T02:29:04;14.00;99.90
51637;DHT22;37713;53.254;6.460;2023-10-09T02:31:31;14.00;99.90
51637;DHT22;37713;53.254;6.460;2023-10-09T02:34:09;14.00;99.90
51637;DHT22;37713;53.254;6.460;2023-10-09T02:36:36;13.90;99.90
51637;DHT22;37713;53.254;6.460;2023-10-09T02:39:11;13.90;99.90
51637;DHT22;37713;53.254;6.460;2023-10-09T02:41:50;13.90;99.90
51637;DHT22;37713;53.254;6.460;2023-10-09T02:44:16;13.90;99.90
51637;DHT22;37713;53.254;6.460;2023-10-09T02:46:50;13.90;99.90
51637;DHT22;37713;53.254;6.460;2023-10-09T02:49:16;13.90;99.90
51637;DHT22;37713;53.254;6.460;2023-10-09T02:51:41;13.90;99.90
51637;DHT22;37713;53.254;6.460;2023-10-09T02:54:07;13.90;99.90
51637;DHT22;37713;53.254;6.460;2023-10-09T02:56:44;13.90;99.90
51637;DHT22;37713;53.254;6.460;2023-10-09T02:59:15;14.00;99.90
51637;DHT22;37713;53.254;6.460;2023-10-09T03:01:41;14.00;99.90
51637;DHT22;37713;53.254;6.460;2023-10-09T03:04:07;13.90;99.90
51637;DHT22;37713;53.254;6.460;2023-10-09T03:06:36;14.00;99.90
51637;DHT22;37713;53.254;6.460;2023-10-09T03:09:09;14.00;99.90
51637;DHT22;37713;53.254;6.460;2023-10-09T03:11:48;14.10;99.90
51637;DHT22;37713;53.254;6.460;2023-10-09T03:14:22;14.00;99.90
51637;DHT22;37713;53.254;6.460;2023-10-09T03:16:52;14.10;99.90
51637;DHT22;37713;53.254;6.460;2023-10-09T03:19:17;14.10;99.90
51637;DHT22;37713;53.254;6.460;2023-10-09T03:21:43;14.10;99.90
51637;DHT22;37713;53.254;6.460;2023-10-09T03:24:09;14.20;99.90
51637;DHT22;37713;53.254;6.460;2023-10-09T03:26:36;14.20;99.90
51637;DHT22;37713;53.254;6.460;2023-10-09T03:29:02;14.30;99.90
51637;DHT22;37713;53.254;6.460;2023-10-09T03:31:32;14.40;99.90
51637;DHT22;37713;53.254;6.460;2023-10-09T03:33:59;14.40;99.90
51637;DHT22;37713;53.254;6.460;2023-10-09T03:36:25;14.50;99.90
51637;DHT22;37713;53.254;6.460;2023-10-09T03:38:54;14.60;99.90
51637;DHT22;37713;53.254;6.460;2023-10-09T03:41:23;14.60;99.90
51637;DHT22;37713;53.254;6.460;2023-10-09T03:43:52;14.70;99.90
51637;DHT22;37713;53.254;6.460;2023-10-09T03:46:17;14.80;99.90
51637;DHT22;37713;53.254;6.460;2023-10-09T03:48:48;14.90;99.90
51637;DHT22;37713;53.254;6.460;2023-10-09T03:51:14;14.90;99.90
51637;DHT22;37713;53.254;6.460;2023-10-09T03:53:47;15.00;99.90
51637;DHT22;37713;53.254;6.460;2023-10-09T03:56:12;15.10;99.90
51637;DHT22;37713;53.254;6.460;2023-10-09T03:58:39;15.10;99.90
51637;DHT22;37713;53.254;6.460;2023-10-09T04:01:15;15.20;99.90
51637;DHT22;37713;53.254;6.460;2023-10-09T04:03:47;15.20;99.90
51637;DHT22;37713;53.254;6.460;2023-10-09T04:06:13;15.30;99.90
51637;DHT22;37713;53.254;6.460;2023-10-09T04:08:38;15.30;99.90
51637;DHT22;37713;53.254;6.460;2023-10-09T04:11:12;15.30;99.90
51637;DHT22;37713;53.254;6.460;2023-10-09T04:13:45;15.30;99.90
51637;DHT22;37713;53.254;6.460;2023-10-09T04:16:34;15.30;99.90
51637;DHT22;37713;53.254;6.460;2023-10-09T04:19:00;15.30;99.90
51637;DHT22;37713;53.254;6.460;2023-10-09T04:21:32;15.30;99.90
51637;DHT22;37713;53.254;6.460;2023-10-09T04:24:05;15.40;99.90
51637;DHT22;37713;53.254;6.460;2023-10-09T04:26:37;15.40;99.90
51637;DHT22;37713;53.254;6.460;2023-10-09T04:29:10;15.40;99.90
51637;DHT22;37713;53.254;6.460;2023-10-09T04:31:36;15.40;99.90
51637;DHT22;37713;53.254;6.460;2023-10-09T04:34:06;15.40;99.90
51637;DHT22;37713;53.254;6.460;2023-10-09T04:36:50;15.30;99.90
51637;DHT22;37713;53.254;6.460;2023-10-09T04:39:45;15.40;99.90
51637;DHT22;37713;53.254;6.460;2023-10-09T04:42:15;15.40;99.90
51637;DHT22;37713;53.254;6.460;2023-10-09T04:44:50;15.40;99.90
51637;DHT22;37713;53.254;6.460;2023-10-09T04:47:28;15.40;99.90
51637;DHT22;37713;53.254;6.460;2023-10-09T04:50:12;15.40;99.90
51637;DHT22;37713;53.254;6.460;2023-10-09T04:53:01;15.40;99.90
51637;DHT22;37713;53.254;6.460;2023-10-09T04:55:48;15.40;99.90
51637;DHT22;37713;53.254;6.460;2023-10-09T04:58:20;15.40;99.90
51637;DHT22;37713;53.254;6.460;2023-10-09T05:00:50;15.50;99.90
51637;DHT22;37713;53.254;6.460;2023-10-09T05:03:36;15.50;99.90
51637;DHT22;37713;53.254;6.460;2023-10-09T05:06:11;15.50;99.90
51637;DHT22;37713;53.254;6.460;2023-10-09T05:08:47;15.50;99.90
51637;DHT22;37713;53.254;6.460;2023-10-09T05:11:14;15.50;99.90
51637;DHT22;37713;53.254;6.460;2023-10-09T05:14:12;15.50;99.90
51637;DHT22;37713;53.254;6.460;2023-10-09T05:16:38;15.50;99.90
51637;DHT22;37713;53.254;6.460;2023-10-09T05:19:22;15.50;99.90
51637;DHT22;37713;53.254;6.460;2023-10-09T05:21:59;15.60;99.90
51637;DHT22;37713;53.254;6.460;2023-10-09T05:24:30;15.60;99.90
51637;DHT22;37713;53.254;6.460;2023-10-09T05:27:08;15.60;99.90
51637;DHT22;37713;53.254;6.460;2023-10-09T05:30:06;15.70;99.90
51637;DHT22;37713;53.254;6.460;2023-10-09T05:32:54;15.60;99.90
51637;DHT22;37713;53.254;6.460;2023-10-09T05:35:38;15.60;99.90
51637;DHT22;37713;53.254;6.460;2023-10-09T05:38:24;15.60;99.90
51637;DHT22;37713;53.254;6.460;2023-10-09T05:40:51;15.60;99.90
51637;DHT22;37713;53.254;6.460;2023-10-09T05:43:20;15.60;99.90
51637;DHT22;37713;53.254;6.460;2023-10-09T05:46:04;15.60;99.90
51637;DHT22;37713;53.254;6.460;2023-10-09T05:48:34;15.70;99.90
51637;DHT22;37713;53.254;6.460;2023-10-09T05:51:03;15.70;99.90
51637;DHT22;37713;53.254;6.460;2023-10-09T05:53:35;15.70;99.90
51637;DHT22;37713;53.254;6.460;2023-10-09T05:56:00;15.70;99.90
51637;DHT22;37713;53.254;6.460;2023-10-09T05:58:44;15.60;99.90
51637;DHT22;37713;53.254;6.460;2023-10-09T06:01:29;15.70;99.90
51637;DHT22;37713;53.254;6.460;2023-10-09T06:04:13;15.70;99.90
51637;DHT22;37713;53.254;6.460;2023-10-09T06:06:43;15.70;99.90
51637;DHT22;37713;53.254;6.460;2023-10-09T06:09:11;15.70;99.90
51637;DHT22;37713;53.254;6.460;2023-10-09T06:11:43;15.70;99.90
51637;DHT22;37713;53.254;6.460;2023-10-09T06:14:18;15.80;99.90
51637;DHT22;37713;53.254;6.460;2023-10-09T06:16:57;15.80;99.90
51637;DHT22;37713;53.254;6.460;2023-10-09T06:19:23;15.80;99.90
51637;DHT22;37713;53.254;6.460;2023-10-09T06:21:49;15.70;99.90
51637;DHT22;37713;53.254;6.460;2023-10-09T06:24:26;15.80;99.90
51637;DHT22;37713;53.254;6.460;2023-10-09T06:26:59;15.80;99.90
51637;DHT22;37713;53.254;6.460;2023-10-09T06:29:25;15.80;99.90
51637;DHT22;37713;53.254;6.460;2023-10-09T06:32:23;15.80;99.90
51637;DHT22;37713;53.254;6.460;2023-10-09T06:37:17;15.80;99.90
51637;DHT22;37713;53.254;6.460;2023-10-09T06:39:49;15.80;99.90
51637;DHT22;37713;53.254;6.460;2023-10-09T06:42:24;15.90;99.90
51637;DHT22;37713;53.254;6.460;2023-10-09T06:45:01;15.80;99.90
51637;DHT22;37713;53.254;6.460;2023-10-09T06:47:31;15.90;99.90
51637;DHT22;37713;53.254;6.460;2023-10-09T06:50:09;15.90;99.90
51637;DHT22;37713;53.254;6.460;2023-10-09T06:52:50;15.80;99.90
51637;DHT22;37713;53.254;6.460;2023-10-09T06:55:39;15.80;99.90
51637;DHT22;37713;53.254;6.460;2023-10-09T06:58:14;15.90;99.90
51637;DHT22;37713;53.254;6.460;2023-10-09T07:00:50;15.90;99.90
51637;DHT22;37713;53.254;6.460;2023-10-09T07:03:35;15.90;99.90
51637;DHT22;37713;53.254;6.460;2023-10-09T07:06:09;15.90;99.90
51637;DHT22;37713;53.254;6.460;2023-10-09T07:08:53;15.90;99.90
51637;DHT22;37713;53.254;6.460;2023-10-09T07:11:31;15.90;99.90
51637;DHT22;37713;53.254;6.460;2023-10-09T07:14:13;15.90;99.90
51637;DHT22;37713;53.254;6.460;2023-10-09T07:16:58;15.90;99.90
51637;DHT22;37713;53.254;6.460;2023-10-09T07:19:24;15.90;99.90
51637;DHT22;37713;53.254;6.460;2023-10-09T07:22:05;15.90;99.90
51637;DHT22;37713;53.254;6.460;2023-10-09T07:24:41;16.00;99.90
51637;DHT22;37713;53.254;6.460;2023-10-09T07:27:18;16.00;99.90
51637;DHT22;37713;53.254;6.460;2023-10-09T07:30:04;16.00;99.90
51637;DHT22;37713;53.254;6.460;2023-10-09T07:32:50;16.10;99.90
51637;DHT22;37713;53.254;6.460;2023-10-09T07:35:17;16.00;99.90
51637;DHT22;37713;53.254;6.460;2023-10-09T07:38:03;16.10;99.90
51637;DHT22;37713;53.254;6.460;2023-10-09T07:40:29;16.10;99.90
51637;DHT22;37713;53.254;6.460;2023-10-09T07:42:57;16.10;99.90
51637;DHT22;37713;53.254;6.460;2023-10-09T07:45:30;16.10;99.90
51637;DHT22;37713;53.254;6.460;2023-10-09T07:47:58;16.10;99.90
51637;DHT22;37713;53.254;6.460;2023-10-09T07:50:24;16.10;99.90
51637;DHT22;37713;53.254;6.460;2023-10-09T07:52:56;16.10;99.90
51637;DHT22;37713;53.254;6.460;2023-10-09T07:55:40;16.10;99.90
51637;DHT22;37713;53.254;6.460;2023-10-09T07:58:11;16.20;99.90
51637;DHT22;37713;53.254;6.460;2023-10-09T08:00:40;16.10;99.90
51637;DHT22;37713;53.254;6.460;2023-10-09T08:03:31;16.20;99.90
51637;DHT22;37713;53.254;6.460;2023-10-09T08:05:59;16.10;99.90
51637;DHT22;37713;53.254;6.460;2023-10-09T08:08:44;16.10;99.90
51637;DHT22;37713;53.254;6.460;2023-10-09T08:11:30;16.10;99.90
51637;DHT22;37713;53.254;6.460;2023-10-09T08:14:13;16.10;99.90
51637;DHT22;37713;53.254;6.460;2023-10-09T08:16:57;16.20;99.90
51637;DHT22;37713;53.254;6.460;2023-10-09T08:19:49;16.10;99.90
51637;DHT22;37713;53.254;6.460;2023-10-09T08:22:36;16.20;99.90
51637;DHT22;37713;53.254;6.460;2023-10-09T08:25:12;16.20;99.90
51637;DHT22;37713;53.254;6.460;2023-10-09T08:28:01;16.20;99.90
51637;DHT22;37713;53.254;6.460;2023-10-09T08:30:40;16.20;99.90
51637;DHT22;37713;53.254;6.460;2023-10-09T08:33:14;16.30;99.90
51637;DHT22;37713;53.254;6.460;2023-10-09T08:35:55;16.30;99.90
51637;DHT22;37713;53.254;6.460;2023-10-09T08:38:30;16.40;99.90
51637;DHT22;37713;53.254;6.460;2023-10-09T08:41:11;16.40;99.90
51637;DHT22;37713;53.254;6.460;2023-10-09T08:43:48;16.40;99.90
51637;DHT22;37713;53.254;6.460;2023-10-09T08:46:18;16.40;99.90
51637;DHT22;37713;53.254;6.460;2023-10-09T08:48:44;16.50;99.90
51637;DHT22;37713;53.254;6.460;2023-10-09T08:51:10;16.50;99.90
51637;DHT22;37713;53.254;6.460;2023-10-09T08:53:36;16.60;99.90
51637;DHT22;37713;53.254;6.460;2023-10-09T08:56:09;16.60;99.90
51637;DHT22;37713;53.254;6.460;2023-10-09T08:58:35;16.60;99.90
51637;DHT22;37713;53.254;6.460;2023-10-09T09:01:02;16.70;99.90
51637;DHT22;37713;53.254;6.460;2023-10-09T09:03:37;16.70;99.90
51637;DHT22;37713;53.254;6.460;2023-10-09T09:06:04;16.80;99.90
51637;DHT22;37713;53.254;6.460;2023-10-09T09:08:32;16.70;99.90
51637;DHT22;37713;53.254;6.460;2023-10-09T09:11:08;16.70;99.90
51637;DHT22;37713;53.254;6.460;2023-10-09T09:13:40;16.80;99.90
51637;DHT22;37713;53.254;6.460;2023-10-09T09:16:19;16.70;99.90
51637;DHT22;37713;53.254;6.460;2023-10-09T09:18:49;16.80;99.90
51637;DHT22;37713;53.254;6.460;2023-10-09T09:21:18;16.80;99.90
51637;DHT22;37713;53.254;6.460;2023-10-09T09:23:54;16.70;99.90
51637;DHT22;37713;53.254;6.460;2023-10-09T09:26:31;16.80;99.90
51637;DHT22;37713;53.254;6.460;2023-10-09T09:29:01;16.80;99.90
51637;DHT22;37713;53.254;6.460;2023-10-09T09:31:29;16.80;99.90
51637;DHT22;37713;53.254;6.460;2023-10-09T09:34:06;16.80;99.90
51637;DHT22;37713;53.254;6.460;2023-10-09T09:36:49;16.90;99.90
51637;DHT22;37713;53.254;6.460;2023-10-09T09:39:25;16.90;99.90
51637;DHT22;37713;53.254;6.460;2023-10-09T09:41:58;17.00;99.90
51637;DHT22;37713;53.254;6.460;2023-10-09T09:44:32;17.00;99.90
51637;DHT22;37713;53.254;6.460;2023-10-09T09:46:59;17.00;99.90
51637;DHT22;37713;53.254;6.460;2023-10-09T09:49:26;17.10;99.90
51637;DHT22;37713;53.254;6.460;2023-10-09T09:51:58;17.20;99.90
51637;DHT22;37713;53.254;6.460;2023-10-09T09:54:23;17.10;99.90
51637;DHT22;37713;53.254;6.460;2023-10-09T09:56:49;17.20;99.90
51637;DHT22;37713;53.254;6.460;2023-10-09T09:59:21;17.10;99.90
51637;DHT22;37713;53.254;6.460;2023-10-09T10:01:54;17.10;99.90
51637;DHT22;37713;53.254;6.460;2023-10-09T10:04:25;17.10;99.90
51637;DHT22;37713;53.254;6.460;2023-10-09T10:06:52;17.00;99.90
51637;DHT22;37713;53.254;6.460;2023-10-09T10:09:39;17.00;99.90
51637;DHT22;37713;53.254;6.460;2023-10-09T10:12:06;17.00;99.90
51637;DHT22;37713;53.254;6.460;2023-10-09T10:17:18;17.00;99.90
51637;DHT22;37713;53.254;6.460;2023-10-09T10:22:40;17.00;99.90
51637;DHT22;37713;53.254;6.460;2023-10-09T10:25:54;17.00;99.90
51637;DHT22;37713;53.254;6.460;2023-10-09T10:30:47;17.10;99.90
51637;DHT22;37713;53.254;6.460;2023-10-09T10:33:16;17.20;99.90
51637;DHT22;37713;53.254;6.460;2023-10-09T10:35:42;17.20;99.90
51637;DHT22;37713;53.254;6.460;2023-10-09T10:38:24;17.20;99.90
51637;DHT22;37713;53.254;6.460;2023-10-09T10:40:50;17.30;99.90
51637;DHT22;37713;53.254;6.460;2023-10-09T10:43:22;17.20;99.90
51637;DHT22;37713;53.254;6.460;2023-10-09T10:46:04;17.10;99.90
51637;DHT22;37713;53.254;6.460;2023-10-09T10:48:34;17.10;99.90
51637;DHT22;37713;53.254;6.460;2023-10-09T10:51:03;17.10;99.90
51637;DHT22;37713;53.254;6.460;2023-10-09T10:53:29;17.10;99.90
51637;DHT22;37713;53.254;6.460;2023-10-09T10:56:01;17.10;99.90
51637;DHT22;37713;53.254;6.460;2023-10-09T10:58:53;17.10;99.90
51637;DHT22;37713;53.254;6.460;2023-10-09T11:01:32;17.00;99.90
51637;DHT22;37713;53.254;6.460;2023-10-09T11:04:25;17.00;99.90
51637;DHT22;37713;53.254;6.460;2023-10-09T11:07:05;17.00;99.90
51637;DHT22;37713;53.254;6.460;2023-10-09T11:09:49;17.00;99.90
51637;DHT22;37713;53.254;6.460;2023-10-09T11:12:31;17.00;99.90
51637;DHT22;37713;53.254;6.460;2023-10-09T11:15:06;16.90;99.90
51637;DHT22;37713;53.254;6.460;2023-10-09T11:18:04;16.90;99.90
51637;DHT22;37713;53.254;6.460;2023-10-09T11:20:36;16.80;99.90
51637;DHT22;37713;53.254;6.460;2023-10-09T11:23:02;16.80;99.90
51637;DHT22;37713;53.254;6.460;2023-10-09T11:25:40;16.90;99.90
51637;DHT22;37713;53.254;6.460;2023-10-09T11:28:19;17.00;99.90
51637;DHT22;37713;53.254;6.460;2023-10-09T11:31:11;17.00;99.90
51637;DHT22;37713;53.254;6.460;2023-10-09T11:33:44;17.30;99.90
51637;DHT22;37713;53.254;6.460;2023-10-09T11:36:10;17.60;99.90
51637;DHT22;37713;53.254;6.460;2023-10-09T11:38:37;17.60;99.90
51637;DHT22;37713;53.254;6.460;2023-10-09T11:41:13;17.50;99.90
51637;DHT22;37713;53.254;6.460;2023-10-09T11:43:48;17.50;99.90
51637;DHT22;37713;53.254;6.460;2023-10-09T11:46:16;17.50;99.90
51637;DHT22;37713;53.254;6.460;2023-10-09T11:49:05;17.50;99.90
51637;DHT22;37713;53.254;6.460;2023-10-09T11:51:46;17.50;99.90
51637;DHT22;37713;53.254;6.460;2023-10-09T11:54:30;17.40;99.90
51637;DHT22;37713;53.254;6.460;2023-10-09T11:56:57;17.30;99.90
51637;DHT22;37713;53.254;6.460;2023-10-09T11:59:26;17.30;99.90
51637;DHT22;37713;53.254;6.460;2023-10-09T12:01:52;17.30;99.90
51637;DHT22;37713;53.254;6.460;2023-10-09T12:04:20;17.30;99.90
51637;DHT22;37713;53.254;6.460;2023-10-09T12:06:45;17.20;99.90
51637;DHT22;37713;53.254;6.460;2023-10-09T12:09:11;17.20;99.90
51637;DHT22;37713;53.254;6.460;2023-10-09T12:11:42;17.20;99.90
51637;DHT22;37713;53.254;6.460;2023-10-09T12:14:08;17.20;99.90
51637;DHT22;37713;53.254;6.460;2023-10-09T12:16:35;17.20;99.90
51637;DHT22;37713;53.254;6.460;2023-10-09T12:19:05;17.30;99.90
51637;DHT22;37713;53.254;6.460;2023-10-09T12:21:34;17.30;99.90
51637;DHT22;37713;53.254;6.460;2023-10-09T12:24:02;17.30;99.90
51637;DHT22;37713;53.254;6.460;2023-10-09T12:26:37;17.30;99.90
51637;DHT22;37713;53.254;6.460;2023-10-09T12:29:05;17.40;99.90
51637;DHT22;37713;53.254;6.460;2023-10-09T12:31:36;17.30;99.90
51637;DHT22;37713;53.254;6.460;2023-10-09T12:34:02;17.40;99.90
51637;DHT22;37713;53.254;6.460;2023-10-09T12:36:28;17.50;99.90
51637;DHT22;37713;53.254;6.460;2023-10-09T12:38:54;17.60;99.90
51637;DHT22;37713;53.254;6.460;2023-10-09T12:41:20;17.60;99.90
51637;DHT22;37713;53.254;6.460;2023-10-09T12:43:52;17.70;99.90
51637;DHT22;37713;53.254;6.460;2023-10-09T12:46:17;17.70;99.90
51637;DHT22;37713;53.254;6.460;2023-10-09T12:48:44;17.60;99.90
51637;DHT22;37713;53.254;6.460;2023-10-09T12:51:13;17.60;99.90
51637;DHT22;37713;53.254;6.460;2023-10-09T12:53:45;17.60;99.90
51637;DHT22;37713;53.254;6.460;2023-10-09T12:56:14;17.60;99.90
51637;DHT22;37713;53.254;6.460;2023-10-09T12:58:41;17.60;99.90
51637;DHT22;37713;53.254;6.460;2023-10-09T13:01:18;17.60;99.90
51637;DHT22;37713;53.254;6.460;2023-10-09T13:03:44;17.60;99.90
51637;DHT22;37713;53.254;6.460;2023-10-09T13:06:14;17.50;99.90
51637;DHT22;37713;53.254;6.460;2023-10-09T13:08:41;17.50;99.90
51637;DHT22;37713;53.254;6.460;2023-10-09T13:11:08;17.50;99.90
51637;DHT22;37713;53.254;6.460;2023-10-09T13:13:37;17.50;99.90
51637;DHT22;37713;53.254;6.460;2023-10-09T13:16:07;17.60;99.90
51637;DHT22;37713;53.254;6.460;2023-10-09T13:18:33;17.60;99.90
51637;DHT22;37713;53.254;6.460;2023-10-09T13:20:58;17.60;99.90
51637;DHT22;37713;53.254;6.460;2023-10-09T13:23:29;17.60;99.90
51637;DHT22;37713;53.254;6.460;2023-10-09T13:26:04;17.60;99.90
51637;DHT22;37713;53.254;6.460;2023-10-09T13:28:43;17.50;99.90
51637;DHT22;37713;53.254;6.460;2023-10-09T13:31:11;17.50;99.90
51637;DHT22;37713;53.254;6.460;2023-10-09T13:33:42;17.50;99.90
51637;DHT22;37713;53.254;6.460;2023-10-09T13:36:11;17.50;99.90
51637;DHT22;37713;53.254;6.460;2023-10-09T13:38:56;17.40;99.90
51637;DHT22;37713;53.254;6.460;2023-10-09T13:41:22;17.50;99.90
51637;DHT22;37713;53.254;6.460;2023-10-09T13:43:53;17.50;99.90
51637;DHT22;37713;53.254;6.460;2023-10-09T13:46:19;17.50;99.90
51637;DHT22;37713;53.254;6.460;2023-10-09T13:48:45;17.40;99.90
51637;DHT22;37713;53.254;6.460;2023-10-09T13:51:12;17.40;99.90
51637;DHT22;37713;53.254;6.460;2023-10-09T13:53:44;17.30;99.90
51637;DHT22;37713;53.254;6.460;2023-10-09T13:56:14;17.20;99.90
51637;DHT22;37713;53.254;6.460;2023-10-09T13:58:43;17.10;99.90
51637;DHT22;37713;53.254;6.460;2023-10-09T14:01:09;17.00;99.90
51637;DHT22;37713;53.254;6.460;2023-10-09T14:03:35;17.00;99.90
51637;DHT22;37713;53.254;6.460;2023-10-09T14:06:04;16.90;99.90
51637;DHT22;37713;53.254;6.460;2023-10-09T14:08:38;17.00;99.90
51637;DHT22;37713;53.254;6.460;2023-10-09T14:11:08;17.00;99.90
51637;DHT22;37713;53.254;6.460;2023-10-09T14:13:39;17.10;99.90
51637;DHT22;37713;53.254;6.460;2023-10-09T14:16:05;17.10;99.90
51637;DHT22;37713;53.254;6.460;2023-10-09T14:18:32;17.10;99.90
51637;DHT22;37713;53.254;6.460;2023-10-09T14:21:04;17.20;99.90
51637;DHT22;37713;53.254;6.460;2023-10-09T14:23:41;17.20;99.90
51637;DHT22;37713;53.254;6.460;2023-10-09T14:26:11;17.20;99.90
51637;DHT22;37713;53.254;6.460;2023-10-09T14:28:38;17.20;99.90
51637;DHT22;37713;53.254;6.460;2023-10-09T14:31:04;17.20;99.90
51637;DHT22;37713;53.254;6.460;2023-10-09T14:33:36;17.30;99.90
51637;DHT22;37713;53.254;6.460;2023-10-09T14:36:02;17.30;99.90
51637;DHT22;37713;53.254;6.460;2023-10-09T14:38:31;17.30;99.90
51637;DHT22;37713;53.254;6.460;2023-10-09T14:40:58;17.20;99.90
51637;DHT22;37713;53.254;6.460;2023-10-09T14:43:25;17.20;99.90
51637;DHT22;37713;53.254;6.460;2023-10-09T14:45:54;17.10;99.90
51637;DHT22;37713;53.254;6.460;2023-10-09T14:48:20;17.10;99.90
51637;DHT22;37713;53.254;6.460;2023-10-09T14:50:51;17.10;99.90
51637;DHT22;37713;53.254;6.460;2023-10-09T14:53:21;17.00;99.90
51637;DHT22;37713;53.254;6.460;2023-10-09T14:55:53;17.10;99.90
51637;DHT22;37713;53.254;6.460;2023-10-09T14:58:19;17.00;99.90
51637;DHT22;37713;53.254;6.460;2023-10-09T15:00:44;17.00;99.90
51637;DHT22;37713;53.254;6.460;2023-10-09T15:03:13;17.00;99.90
51637;DHT22;37713;53.254;6.460;2023-10-09T15:05:40;17.10;99.90
51637;DHT22;37713;53.254;6.460;2023-10-09T15:08:07;17.10;99.90
51637;DHT22;37713;53.254;6.460;2023-10-09T15:10:57;17.10;99.90
51637;DHT22;37713;53.254;6.460;2023-10-09T15:13:22;17.10;99.90
51637;DHT22;37713;53.254;6.460;2023-10-09T15:15:54;17.10;99.90
51637;DHT22;37713;53.254;6.460;2023-10-09T15:18:21;17.00;99.90
51637;DHT22;37713;53.254;6.460;2023-10-09T15:20:47;17.00;99.90
51637;DHT22;37713;53.254;6.460;2023-10-09T15:23:13;16.90;99.90
51637;DHT22;37713;53.254;6.460;2023-10-09T15:25:38;16.90;99.90
51637;DHT22;37713;53.254;6.460;2023-10-09T15:28:05;16.90;99.90
51637;DHT22;37713;53.254;6.460;2023-10-09T15:30:35;16.90;99.90
51637;DHT22;37713;53.254;6.460;2023-10-09T15:33:06;16.90;99.90
51637;DHT22;37713;53.254;6.460;2023-10-09T15:35:33;16.90;99.90
51637;DHT22;37713;53.254;6.460;2023-10-09T15:38:01;16.80;99.90
51637;DHT22;37713;53.254;6.460;2023-10-09T15:40:32;16.80;99.90
51637;DHT22;37713;53.254;6.460;2023-10-09T15:43:03;16.80;99.90
51637;DHT22;37713;53.254;6.460;2023-10-09T15:45:30;16.80;99.90
51637;DHT22;37713;53.254;6.460;2023-10-09T15:47:57;16.80;99.90
51637;DHT22;37713;53.254;6.460;2023-10-09T15:50:23;16.80;99.90
51637;DHT22;37713;53.254;6.460;2023-10-09T15:52:51;16.80;99.90
51637;DHT22;37713;53.254;6.460;2023-10-09T15:55:17;16.70;99.90
51637;DHT22;37713;53.254;6.460;2023-10-09T15:57:46;16.70;99.90
51637;DHT22;37713;53.254;6.460;2023-10-09T16:00:14;16.70;99.90
51637;DHT22;37713;53.254;6.460;2023-10-09T16:02:40;16.60;99.90
51637;DHT22;37713;53.254;6.460;2023-10-09T16:05:07;16.60;99.90
51637;DHT22;37713;53.254;6.460;2023-10-09T16:07:35;16.60;99.90
51637;DHT22;37713;53.254;6.460;2023-10-09T16:10:03;16.60;99.90
51637;DHT22;37713;53.254;6.460;2023-10-09T16:12:34;16.60;99.90
51637;DHT22;37713;53.254;6.460;2023-10-09T16:14:59;16.50;99.90